Time;durP1;ratioP1;P1;durP2;ratioP2;P2;SDS_P1;SDS_P2;PMS_P1;PMS_P2;Temp;Humidity;BMP_temperature;BMP_pressure;BME280_temperature;BME280_humidity;BME280_pressure;Samples;Min_cycle;Max_cycle;Signal;HPM_P1;HPM_P2
2023/06/28 00:00:33;;;;;;;14.35;12.32;;;589.50;2432.00;;;;;;5072416;28;20032;-81
2023/06/28 00:03:00;;;;;;;14.60;12.55;;;589.30;2432.00;;;;;;5073632;28;20039;-81
2023/06/28 00:05:26;;;;;;;15.35;13.77;;;589.30;2432.00;;;;;;5071860;28;20162;-80
2023/06/28 00:07:52;;;;;;;13.65;12.25;;;589.10;2432.00;;;;;;5072612;28;20078;-82
2023/06/28 00:10:18;;;;;;;13.85;12.43;;;589.10;2432.00;;;;;;5073923;28;20461;-81
2023/06/28 00:12:43;;;;;;;13.63;12.23;;;589.10;2432.00;;;;;;5076379;28;20033;-81
2023/06/28 00:15:09;;;;;;;12.25;10.93;;;589.20;2432.00;;;;;;5076200;28;20476;-81
2023/06/28 00:17:35;;;;;;;13.43;10.40;;;589.10;2432.00;;;;;;5075640;28;20032;-81
2023/06/28 00:20:07;;;;;;;11.90;9.77;;;589.10;2432.00;;;;;;5076380;28;20032;-81
2023/06/28 00:22:33;;;;;;;11.07;8.75;;;589.10;2432.00;;;;;;5076366;28;20526;-82
2023/06/28 00:25:00;;;;;;;13.77;9.32;;;589.00;2432.00;;;;;;5075630;28;20081;-81
2023/06/28 00:27:29;;;;;;;11.85;7.63;;;589.00;2432.00;;;;;;5087225;28;20036;-82
2023/06/28 00:29:56;;;;;;;12.13;7.63;;;589.00;2432.00;;;;;;5090421;28;20035;-81
2023/06/28 00:32:23;;;;;;;10.43;6.75;;;588.90;2432.00;;;;;;5075559;28;20032;-81
2023/06/28 00:34:49;;;;;;;7.60;5.85;;;588.90;2432.00;;;;;;5075838;28;20373;-82
2023/06/28 00:37:15;;;;;;;7.13;5.03;;;564.10;2432.00;;;;;;5077030;28;20453;-81
2023/06/28 00:39:41;;;;;;;5.82;4.43;;;564.10;2432.00;;;;;;5075654;28;20032;-82
2023/06/28 00:42:07;;;;;;;7.57;4.50;;;564.10;2432.00;;;;;;5075627;28;20073;-81
2023/06/28 00:44:33;;;;;;;5.40;3.85;;;564.00;2432.00;;;;;;5075537;28;20495;-81
2023/06/28 00:47:01;;;;;;;9.63;4.38;;;564.00;2432.00;;;;;;5076730;28;20024;-80
2023/06/28 00:49:31;;;;;;;6.10;4.18;;;564.00;2432.00;;;;;;5075466;28;20032;-81
2023/06/28 00:51:58;;;;;;;5.20;3.17;;;563.90;2432.00;;;;;;5075378;28;20033;-81
2023/06/28 00:54:24;;;;;;;6.22;3.78;;;563.70;2355.20;;;;;;5075250;28;20094;-81
2023/06/28 00:56:51;;;;;;;6.30;3.60;;;563.70;2329.60;;;;;;5075413;28;20452;-81
2023/06/28 00:59:18;;;;;;;5.28;3.45;;;563.60;2329.60;;;;;;5075116;28;20158;-81
2023/06/28 01:01:44;;;;;;;5.95;3.47;;;563.60;2329.60;;;;;;5076525;28;20059;-81
2023/06/28 01:04:13;;;;;;;10.25;3.75;;;563.60;2304.00;;;;;;5076218;28;20059;-81
2023/06/28 01:06:41;;;;;;;5.57;3.22;;;563.60;2278.40;;;;;;5074669;28;20056;-81
2023/06/28 01:09:10;;;;;;;8.88;3.92;;;563.60;2304.00;;;;;;5074997;28;20036;-81
2023/06/28 01:11:37;;;;;;;6.65;3.75;;;563.60;2278.40;;;;;;5075129;28;20082;-81
2023/06/28 01:14:05;;;;;;;7.55;3.97;;;563.60;2304.00;;;;;;5074845;28;20526;-81
2023/06/28 01:16:33;;;;;;;5.68;3.85;;;563.60;2355.20;;;;;;5074995;28;20024;-81
2023/06/28 01:19:00;;;;;;;7.65;3.90;;;563.50;2406.40;;;;;;5074950;28;20021;-81
2023/06/28 01:21:32;;;;;;;7.13;4.22;;;563.50;2406.40;;;;;;5073280;28;20028;-81
2023/06/28 01:24:00;;;;;;;6.45;4.10;;;563.50;2432.00;;;;;;5075969;28;20024;-81
2023/06/28 01:26:27;;;;;;;6.28;3.85;;;563.50;2432.00;;;;;;5076260;28;20059;-82
2023/06/28 01:28:53;;;;;;;5.68;3.38;;;563.50;2406.40;;;;;;5074425;28;20031;-81
2023/06/28 01:31:19;;;;;;;6.72;3.58;;;563.50;2406.40;;;;;;5074513;28;20805;-81
2023/06/28 01:33:46;;;;;;;7.72;3.80;;;563.30;2406.40;;;;;;5074472;28;20119;-81
2023/06/28 01:36:12;;;;;;;6.75;3.75;;;563.30;2432.00;;;;;;5074253;28;20029;-82
2023/06/28 01:38:39;;;;;;;6.15;3.55;;;563.20;2406.40;;;;;;5074506;28;20029;-82
2023/06/28 01:41:07;;;;;;;5.55;2.95;;;563.20;2406.40;;;;;;5074339;28;20024;-80
2023/06/28 01:43:33;;;;;;;5.85;3.22;;;538.50;2380.80;;;;;;5074480;28;20029;-81
2023/06/28 01:46:00;;;;;;;6.15;3.53;;;538.50;2380.80;;;;;;5074438;28;20035;-82
2023/06/28 01:48:26;;;;;;;7.40;3.95;;;538.40;2406.40;;;;;;5075445;28;20082;-82
2023/06/28 01:50:52;;;;;;;6.53;4.30;;;538.40;2406.40;;;;;;5074232;28;20032;-81
2023/06/28 01:53:18;;;;;;;7.93;3.05;;;538.40;2406.40;;;;;;5074373;28;20423;-81
2023/06/28 01:55:45;;;;;;;5.00;3.33;;;538.40;2406.40;;;;;;5073926;28;20024;-81
2023/06/28 01:58:10;;;;;;;5.53;3.53;;;538.30;2406.40;;;;;;5074405;28;20145;-81
2023/06/28 02:00:36;;;;;;;9.73;3.65;;;538.40;2406.40;;;;;;5074381;28;20043;-81
2023/06/28 02:03:02;;;;;;;4.88;3.20;;;538.30;2406.40;;;;;;5074930;28;20415;-82
2023/06/28 02:05:28;;;;;;;5.15;3.20;;;538.30;2406.40;;;;;;5073908;28;20039;-81
2023/06/28 02:07:54;;;;;;;5.35;3.67;;;538.20;2406.40;;;;;;5075880;28;20028;-82
2023/06/28 02:10:23;;;;;;;7.07;3.58;;;538.20;2406.40;;;;;;5073912;28;20028;-82
2023/06/28 02:12:49;;;;;;;7.53;3.40;;;538.20;2406.40;;;;;;5075532;28;20024;-82
2023/06/28 02:15:14;;;;;;;5.45;3.50;;;538.10;2406.40;;;;;;5074140;28;20468;-82
2023/06/28 02:17:40;;;;;;;5.80;3.28;;;538.20;2406.40;;;;;;5073647;28;20027;-82
2023/06/28 02:20:12;;;;;;;5.60;3.67;;;538.20;2406.40;;;;;;5073868;28;20057;-82
2023/06/28 02:22:39;;;;;;;6.13;4.00;;;538.30;2406.40;;;;;;5073946;28;20035;-82
2023/06/28 02:25:05;;;;;;;8.85;3.30;;;538.20;2406.40;;;;;;5077751;28;20036;-82
2023/06/28 02:27:31;;;;;;;9.70;3.72;;;538.20;2406.40;;;;;;5081066;28;20027;-81
2023/06/28 02:29:57;;;;;;;4.63;3.22;;;538.20;2406.40;;;;;;5096789;28;20028;-82
2023/06/28 02:32:24;;;;;;;7.55;3.75;;;538.20;2406.40;;;;;;5095282;28;20064;-82
2023/06/28 02:34:49;;;;;;;6.82;3.47;;;538.10;2406.40;;;;;;5092797;28;20035;-81
2023/06/28 02:37:15;;;;;;;7.50;3.70;;;538.10;2406.40;;;;;;5095956;28;20012;-81
2023/06/28 02:39:41;;;;;;;6.88;3.70;;;538.20;2406.40;;;;;;5078343;28;20418;-82
2023/06/28 02:42:07;;;;;;;7.47;3.30;;;538.10;2406.40;;;;;;5074527;28;20031;-82
2023/06/28 02:44:36;;;;;;;8.40;3.42;;;538.10;2406.40;;;;;;5073276;28;20020;-82
2023/06/28 02:47:02;;;;;;;6.20;3.22;;;538.00;2406.40;;;;;;5073385;28;20024;-82
2023/06/28 02:49:28;;;;;;;6.00;3.78;;;538.00;2406.40;;;;;;5073590;28;20464;-82
2023/06/28 02:51:54;;;;;;;5.47;3.67;;;538.00;2406.40;;;;;;5073115;28;20040;-81
2023/06/28 02:54:19;;;;;;;8.88;4.43;;;538.00;2406.40;;;;;;5073770;28;20529;-82
2023/06/28 02:56:45;;;;;;;7.22;3.65;;;537.90;2406.40;;;;;;5110516;28;20031;-82
2023/06/28 02:59:11;;;;;;;7.60;3.90;;;537.90;2406.40;;;;;;5094366;28;20024;-82
2023/06/28 03:01:37;;;;;;;5.97;3.50;;;537.90;2406.40;;;;;;5110420;28;20035;-82
2023/06/28 03:04:02;;;;;;;6.63;3.97;;;537.90;2406.40;;;;;;5110412;28;20181;-81
2023/06/28 03:06:28;;;;;;;8.52;3.83;;;537.80;2406.40;;;;;;5094254;28;20056;-81
2023/06/28 03:08:54;;;;;;;6.47;4.00;;;537.80;2406.40;;;;;;5110354;28;20020;-82
2023/06/28 03:11:21;;;;;;;6.35;3.15;;;537.70;2406.40;;;;;;5093299;28;20459;-82
2023/06/28 03:13:47;;;;;;;5.05;3.50;;;537.60;2406.40;;;;;;5110239;28;20020;-82
2023/06/28 03:16:13;;;;;;;5.93;3.38;;;537.60;2406.40;;;;;;5094708;28;20046;-82
2023/06/28 03:18:38;;;;;;;6.97;3.63;;;537.60;2406.40;;;;;;5110163;28;20387;-82
2023/06/28 03:21:04;;;;;;;6.45;3.70;;;537.70;2406.40;;;;;;5094120;28;20028;-83
2023/06/28 03:23:30;;;;;;;5.90;3.95;;;537.80;2406.40;;;;;;5110031;28;20072;-82
2023/06/28 03:25:56;;;;;;;5.07;3.58;;;537.80;2406.40;;;;;;5110004;28;20024;-82
2023/06/28 03:28:21;;;;;;;4.95;3.15;;;537.70;2406.40;;;;;;5094256;28;20417;-83
2023/06/28 03:30:47;;;;;;;5.30;3.67;;;537.80;2406.40;;;;;;5103595;28;20039;-82
2023/06/28 03:33:13;;;;;;;5.70;3.20;;;537.70;2406.40;;;;;;5109407;28;20115;-82
2023/06/28 03:35:39;;;;;;;5.97;3.40;;;537.60;2406.40;;;;;;5109789;28;20108;-82
2023/06/28 03:38:05;;;;;;;4.97;3.25;;;537.60;2406.40;;;;;;5094029;28;20028;-82
2023/06/28 03:40:30;;;;;;;6.90;3.30;;;537.60;2406.40;;;;;;5109420;28;20123;-82
2023/06/28 03:42:56;;;;;;;5.20;3.47;;;537.60;2406.40;;;;;;5093965;28;20026;-82
2023/06/28 03:45:22;;;;;;;5.82;3.17;;;537.60;2406.40;;;;;;5109272;28;20024;-83
2023/06/28 03:47:48;;;;;;;5.75;3.20;;;537.70;2406.40;;;;;;5109461;28;20111;-82
2023/06/28 03:50:14;;;;;;;5.03;2.80;;;537.70;2406.40;;;;;;5109665;28;20487;-82
2023/06/28 03:52:40;;;;;;;5.25;3.10;;;537.70;2406.40;;;;;;5109935;28;20032;-82
2023/06/28 03:55:06;;;;;;;4.78;3.10;;;537.70;2406.40;;;;;;5109611;28;20357;-83
2023/06/28 03:57:32;;;;;;;5.20;3.38;;;537.80;2406.40;;;;;;5109586;28;20062;-82
2023/06/28 03:59:58;;;;;;;5.57;2.85;;;537.80;2406.40;;;;;;5109690;28;20032;-82
2023/06/28 04:02:24;;;;;;;4.70;3.25;;;537.80;2406.40;;;;;;5109594;28;20031;-82
2023/06/28 04:04:50;;;;;;;7.25;3.22;;;537.80;2406.40;;;;;;5093729;28;20020;-82
2023/06/28 04:07:16;;;;;;;4.93;3.45;;;537.80;2406.40;;;;;;5109087;28;20131;-83
2023/06/28 04:09:43;;;;;;;6.60;3.30;;;512.90;2380.80;;;;;;5109027;28;20032;-82
2023/06/28 04:12:09;;;;;;;5.00;3.20;;;512.90;2380.80;;;;;;5093934;28;20050;-82
2023/06/28 04:14:35;;;;;;;5.90;3.17;;;537.60;2406.40;;;;;;5109691;28;20456;-82
2023/06/28 04:17:01;;;;;;;8.25;3.42;;;537.70;2406.40;;;;;;5109145;28;20036;-80
2023/06/28 04:19:26;;;;;;;5.43;2.90;;;537.60;2406.40;;;;;;5109491;28;20028;-81
2023/06/28 04:21:52;;;;;;;6.90;3.75;;;537.60;2406.40;;;;;;5109495;28;20024;-81
2023/06/28 04:24:18;;;;;;;4.95;3.67;;;537.60;2406.40;;;;;;5109424;28;20024;-81
2023/06/28 04:26:44;;;;;;;4.85;3.38;;;537.60;2406.40;;;;;;5109415;28;20036;-81
2023/06/28 04:29:09;;;;;;;7.63;3.20;;;512.90;2380.80;;;;;;5108992;28;20024;-81
2023/06/28 04:31:35;;;;;;;5.07;3.17;;;537.60;2406.40;;;;;;5109280;28;20031;-82
2023/06/28 04:34:01;;;;;;;5.55;3.22;;;512.90;2380.80;;;;;;5109943;28;20021;-84
2023/06/28 04:36:27;;;;;;;7.15;3.10;;;512.90;2380.80;;;;;;5093337;28;20375;-82
2023/06/28 04:38:54;;;;;;;7.13;3.10;;;512.90;2380.80;;;;;;5109443;28;20036;-83
2023/06/28 04:41:26;;;;;;;4.32;2.75;;;512.90;2380.80;;;;;;5109464;28;20021;-82
2023/06/28 04:43:54;;;;;;;6.35;3.50;;;512.80;2380.80;;;;;;5093803;28;20051;-82
2023/06/28 04:46:22;;;;;;;5.43;3.05;;;512.70;2380.80;;;;;;5093848;28;20078;-82
2023/06/28 04:48:49;;;;;;;4.32;3.00;;;512.70;2380.80;;;;;;5109153;28;20020;-83
2023/06/28 04:51:16;;;;;;;5.75;3.35;;;512.80;2380.80;;;;;;5101871;28;20120;-82
2023/06/28 04:53:41;;;;;;;5.60;3.03;;;512.80;2380.80;;;;;;5091280;28;20046;-83
2023/06/28 04:56:07;;;;;;;5.90;3.33;;;512.80;2380.80;;;;;;5110265;28;20395;-82
2023/06/28 04:58:33;;;;;;;5.22;3.10;;;512.90;2380.80;;;;;;5112593;28;20035;-83
2023/06/28 05:01:05;;;;;;;4.82;2.88;;;512.90;2380.80;;;;;;5104099;28;20060;-82
2023/06/28 05:03:31;;;;;;;4.80;3.10;;;512.90;2380.80;;;;;;5095514;28;20052;-82
2023/06/28 05:05:57;;;;;;;5.75;3.38;;;512.90;2380.80;;;;;;5112031;28;20442;-83
2023/06/28 05:08:23;;;;;;;6.20;3.25;;;537.60;2406.40;;;;;;5112479;28;20058;-83
2023/06/28 05:10:49;;;;;;;4.63;3.03;;;537.60;2406.40;;;;;;5096337;28;20059;-80
2023/06/28 05:13:15;;;;;;;6.22;3.53;;;512.90;2380.80;;;;;;5111864;28;20077;-80
2023/06/28 05:15:42;;;;;;;5.43;3.10;;;512.90;2380.80;;;;;;5112472;28;20024;-80
2023/06/28 05:18:08;;;;;;;5.80;3.30;;;512.90;2380.80;;;;;;5112422;28;20468;-82
2023/06/28 05:20:34;;;;;;;9.10;2.95;;;512.90;2380.80;;;;;;5075171;28;20078;-82
2023/06/28 05:23:13;;;;;;;6.28;3.53;;;537.60;2406.40;;;;;;5075103;28;20029;-83
2023/06/28 05:25:40;;;;;;;4.78;3.25;;;512.90;2380.80;;;;;;5074896;28;20032;-82
2023/06/28 05:28:07;;;;;;;7.05;3.88;;;512.90;2380.80;;;;;;5075036;28;20025;-82
2023/06/28 05:30:34;;;;;;;6.95;3.92;;;537.60;2406.40;;;;;;5079012;28;20104;-81
2023/06/28 05:33:02;;;;;;;4.78;2.88;;;537.70;2406.40;;;;;;5091580;28;20017;-81
2023/06/28 05:35:29;;;;;;;7.53;3.80;;;537.80;2406.40;;;;;;5096986;28;20024;-80
2023/06/28 05:37:55;;;;;;;7.28;3.50;;;537.80;2406.40;;;;;;5075127;28;20031;-81
2023/06/28 05:40:21;;;;;;;4.68;2.97;;;537.80;2406.40;;;;;;5074899;28;20111;-82
2023/06/28 05:42:47;;;;;;;4.97;2.92;;;537.80;2406.40;;;;;;5074753;28;20028;-81
2023/06/28 05:45:12;;;;;;;4.97;3.22;;;537.90;2406.40;;;;;;5076182;28;20100;-82
2023/06/28 05:47:38;;;;;;;6.68;2.97;;;538.30;2406.40;;;;;;5074595;28;20460;-82
2023/06/28 05:50:04;;;;;;;5.45;3.60;;;537.90;2406.40;;;;;;5074546;28;20040;-81
2023/06/28 05:52:30;;;;;;;5.95;3.50;;;537.90;2406.40;;;;;;5075951;28;20085;-82
2023/06/28 05:54:56;;;;;;;4.88;2.80;;;537.90;2406.40;;;;;;5075736;28;20021;-82
2023/06/28 05:57:22;;;;;;;5.95;3.15;;;537.90;2406.40;;;;;;5091257;28;20026;-81
2023/06/28 05:59:48;;;;;;;8.35;3.85;;;537.80;2406.40;;;;;;5074598;28;20059;-82
2023/06/28 06:02:14;;;;;;;5.93;3.25;;;537.80;2406.40;;;;;;5092045;28;20043;-82
2023/06/28 06:04:40;;;;;;;4.70;3.03;;;537.80;2406.40;;;;;;5094794;28;20452;-82
2023/06/28 06:07:05;;;;;;;5.13;3.53;;;537.80;2406.40;;;;;;5092919;28;20048;-81
2023/06/28 06:09:32;;;;;;;7.95;3.63;;;537.80;2406.40;;;;;;5094534;28;20028;-81
2023/06/28 06:11:57;;;;;;;5.80;3.28;;;538.10;2406.40;;;;;;5090050;28;20025;-81
2023/06/28 06:14:23;;;;;;;5.80;3.42;;;537.80;2406.40;;;;;;5074420;28;20142;-81
2023/06/28 06:16:49;;;;;;;5.53;3.00;;;537.70;2406.40;;;;;;5100869;28;20024;-82
2023/06/28 06:19:15;;;;;;;7.07;3.28;;;537.80;2406.40;;;;;;5100496;28;20028;-82
2023/06/28 06:21:40;;;;;;;6.30;3.08;;;537.70;2406.40;;;;;;5102364;28;20043;-79
2023/06/28 06:24:07;;;;;;;4.95;3.38;;;537.80;2406.40;;;;;;5103767;28;20031;-81
2023/06/28 06:26:36;;;;;;;5.55;3.60;;;537.70;2406.40;;;;;;5105732;28;20020;-81
2023/06/28 06:29:02;;;;;;;6.35;3.38;;;537.70;2406.40;;;;;;5102059;28;20038;-80
2023/06/28 06:31:29;;;;;;;5.15;3.17;;;537.80;2406.40;;;;;;5094515;28;20028;-81
2023/06/28 06:34:01;;;;;;;5.78;3.47;;;537.80;2406.40;;;;;;5093775;28;20024;-83
2023/06/28 06:36:30;;;;;;;7.43;3.10;;;537.80;2406.40;;;;;;5093634;28;20035;-81
2023/06/28 06:38:57;;;;;;;4.93;3.53;;;537.90;2406.40;;;;;;5093793;28;20263;-83
2023/06/28 06:41:23;;;;;;;6.22;3.25;;;538.00;2406.40;;;;;;5093658;28;20072;-81
2023/06/28 06:43:52;;;;;;;5.65;3.25;;;538.00;2406.40;;;;;;5094640;28;20035;-81
2023/06/28 06:46:20;;;;;;;6.43;3.72;;;538.00;2406.40;;;;;;5093558;28;20158;-82
2023/06/28 06:48:46;;;;;;;6.97;3.53;;;538.00;2406.40;;;;;;5093766;28;20031;-81
2023/06/28 06:51:12;;;;;;;6.53;3.63;;;538.50;2406.40;;;;;;5093019;28;20122;-82
2023/06/28 06:53:37;;;;;;;5.07;3.13;;;538.00;2406.40;;;;;;5093463;28;20182;-81
2023/06/28 06:56:04;;;;;;;5.65;3.47;;;538.10;2406.40;;;;;;5092989;28;20024;-80
2023/06/28 06:58:30;;;;;;;5.75;3.60;;;538.20;2406.40;;;;;;5094506;28;20099;-82
2023/06/28 07:00:56;;;;;;;5.05;3.35;;;538.20;2406.40;;;;;;5094670;28;20108;-81
2023/06/28 07:03:22;;;;;;;6.25;3.42;;;538.20;2406.40;;;;;;5093290;28;20070;-81
2023/06/28 07:05:48;;;;;;;5.63;3.47;;;538.30;2406.40;;;;;;5093093;28;20465;-82
2023/06/28 07:08:13;;;;;;;6.30;3.53;;;538.20;2406.40;;;;;;5092781;28;20039;-81
2023/06/28 07:10:39;;;;;;;5.90;3.53;;;538.20;2406.40;;;;;;5092002;28;20028;-82
2023/06/28 07:13:05;;;;;;;5.95;3.30;;;538.20;2406.40;;;;;;5092949;28;20032;-81
2023/06/28 07:15:31;;;;;;;6.28;3.53;;;538.10;2406.40;;;;;;5093015;28;20024;-82
2023/06/28 07:17:57;;;;;;;5.28;3.40;;;538.10;2406.40;;;;;;5092743;28;20436;-81
2023/06/28 07:20:22;;;;;;;5.22;3.47;;;538.10;2406.40;;;;;;5093123;28;20054;-85
2023/06/28 07:22:48;;;;;;;5.70;3.45;;;538.10;2406.40;;;;;;5093252;28;20414;-81
2023/06/28 07:25:14;;;;;;;5.85;3.22;;;538.10;2406.40;;;;;;5089394;28;20029;-82
2023/06/28 07:27:40;;;;;;;5.80;3.97;;;538.10;2406.40;;;;;;5088977;28;20075;-82
2023/06/28 07:30:07;;;;;;;4.75;2.80;;;538.20;2406.40;;;;;;5097850;28;20032;-82
2023/06/28 07:32:34;;;;;;;5.13;3.72;;;538.10;2406.40;;;;;;5109564;28;20028;-82
2023/06/28 07:35:00;;;;;;;6.18;3.40;;;538.20;2406.40;;;;;;5094435;28;20016;-81
2023/06/28 07:37:27;;;;;;;5.28;3.17;;;538.10;2406.40;;;;;;5110102;28;20080;-82
2023/06/28 07:39:53;;;;;;;6.13;2.92;;;538.10;2406.40;;;;;;5109835;28;20032;-81
2023/06/28 07:42:19;;;;;;;5.15;2.90;;;538.10;2406.40;;;;;;5094325;28;20035;-82
2023/06/28 07:44:45;;;;;;;10.15;3.05;;;538.10;2406.40;;;;;;5093919;28;20160;-82
2023/06/28 07:47:11;;;;;;;6.30;3.13;;;538.10;2406.40;;;;;;5108571;28;20110;-83
2023/06/28 07:49:38;;;;;;;6.25;3.45;;;538.10;2406.40;;;;;;5109605;28;20455;-82
2023/06/28 07:52:04;;;;;;;5.70;3.50;;;538.10;2406.40;;;;;;5109771;28;20119;-82
2023/06/28 07:54:30;;;;;;;6.80;3.47;;;538.20;2406.40;;;;;;5109800;28;20028;-81
2023/06/28 07:56:56;;;;;;;7.05;4.47;;;538.20;2406.40;;;;;;5109922;28;20035;-82
2023/06/28 07:59:22;;;;;;;5.10;2.80;;;538.40;2406.40;;;;;;5105634;28;20120;-83
2023/06/28 08:01:49;;;;;;;5.25;3.15;;;538.40;2406.40;;;;;;5093721;28;20020;-82
2023/06/28 08:04:16;;;;;;;8.02;3.67;;;538.30;2406.40;;;;;;5092832;28;20486;-82
2023/06/28 08:06:46;;;;;;;5.85;3.65;;;538.30;2406.40;;;;;;5093848;28;20063;-82
2023/06/28 08:09:12;;;;;;;4.00;2.78;;;538.40;2406.40;;;;;;5092293;28;20025;-83
2023/06/28 08:11:37;;;;;;;5.25;3.20;;;538.40;2406.40;;;;;;5093969;28;20030;-81
2023/06/28 08:14:04;;;;;;;5.30;3.50;;;538.40;2406.40;;;;;;5092543;28;20031;-82
2023/06/28 08:16:30;;;;;;;5.53;3.08;;;538.50;2406.40;;;;;;5092790;28;20114;-81
2023/06/28 08:18:56;;;;;;;5.55;3.70;;;538.40;2406.40;;;;;;5093944;28;20060;-81
2023/06/28 08:21:21;;;;;;;4.72;3.10;;;538.40;2406.40;;;;;;5092544;28;20031;-81
2023/06/28 08:23:47;;;;;;;4.50;2.90;;;538.40;2406.40;;;;;;5092292;28;20523;-81
2023/06/28 08:26:13;;;;;;;7.30;3.33;;;538.40;2406.40;;;;;;5092319;28;20020;-81
2023/06/28 08:28:39;;;;;;;5.88;3.38;;;538.50;2406.40;;;;;;5093369;28;20080;-80
2023/06/28 08:31:04;;;;;;;5.35;3.97;;;538.50;2406.40;;;;;;5093808;28;20069;-82
2023/06/28 08:33:30;;;;;;;6.45;3.10;;;563.30;2432.00;;;;;;5096359;28;20028;-81
2023/06/28 08:35:56;;;;;;;4.93;3.38;;;563.30;2432.00;;;;;;5095937;28;20031;-82
2023/06/28 08:38:22;;;;;;;5.68;3.30;;;563.20;2432.00;;;;;;5096162;28;20024;-80
2023/06/28 08:40:48;;;;;;;5.28;3.63;;;563.20;2432.00;;;;;;5095829;28;20020;-81
2023/06/28 08:43:16;;;;;;;4.65;3.15;;;563.30;2432.00;;;;;;5095901;28;20028;-81
2023/06/28 08:45:44;;;;;;;6.35;3.50;;;563.30;2432.00;;;;;;5097347;28;20099;-81
2023/06/28 08:48:13;;;;;;;7.78;3.00;;;563.40;2432.00;;;;;;5095798;28;20036;-81
2023/06/28 08:50:40;;;;;;;7.03;3.70;;;563.30;2432.00;;;;;;5095909;28;20024;-82
2023/06/28 08:53:10;;;;;;;6.63;4.43;;;563.40;2432.00;;;;;;5096547;28;20024;-85
2023/06/28 08:55:41;;;;;;;5.80;3.40;;;563.30;2432.00;;;;;;5096377;28;20024;-82
2023/06/28 08:58:08;;;;;;;6.00;4.32;;;563.30;2432.00;;;;;;5096061;28;20020;-82
2023/06/28 09:00:33;;;;;;;5.80;3.50;;;563.30;2432.00;;;;;;5108550;28;20032;-80
2023/06/28 09:03:01;;;;;;;5.47;3.50;;;563.40;2432.00;;;;;;5114724;28;20349;-84
2023/06/28 09:05:27;;;;;;;4.47;3.03;;;563.20;2432.00;;;;;;5106138;28;20020;-83
2023/06/28 09:07:56;;;;;;;7.07;3.42;;;563.30;2432.00;;;;;;5100936;28;20112;-82
2023/06/28 09:10:23;;;;;;;5.40;3.92;;;538.50;2406.40;;;;;;5096152;28;20111;-82
2023/06/28 09:12:50;;;;;;;6.30;3.88;;;563.30;2432.00;;;;;;5097387;28;20389;-82
2023/06/28 09:15:21;;;;;;;6.53;3.58;;;563.30;2432.00;;;;;;5096623;28;20378;-83
2023/06/28 09:17:47;;;;;;;7.25;4.22;;;563.30;2432.00;;;;;;5095412;28;20025;-82
2023/06/28 09:20:16;;;;;;;7.65;3.85;;;563.40;2432.00;;;;;;5095632;28;20035;-81
2023/06/28 09:22:42;;;;;;;6.20;4.30;;;563.30;2432.00;;;;;;5096135;28;20380;-80
2023/06/28 09:25:08;;;;;;;6.80;4.10;;;563.30;2432.00;;;;;;5095057;28;20017;-80
2023/06/28 09:27:34;;;;;;;7.28;4.18;;;563.20;2432.00;;;;;;5092483;28;20028;-80
2023/06/28 09:30:00;;;;;;;5.85;3.92;;;538.50;2406.40;;;;;;5093966;28;20039;-76
2023/06/28 09:32:41;;;;;;;7.43;4.10;;;538.50;2406.40;;;;;;5096211;28;20036;-79
2023/06/28 09:35:10;;;;;;;6.63;4.68;;;538.50;2406.40;;;;;;5094894;28;20031;-81
2023/06/28 09:37:38;;;;;;;6.13;4.53;;;538.50;2406.40;;;;;;5093797;28;20028;-81
2023/06/28 09:40:07;;;;;;;6.95;4.40;;;538.50;2406.40;;;;;;5094770;28;20418;-81
2023/06/28 09:42:47;;;;;;;8.35;4.40;;;538.50;2406.40;;;;;;5094670;28;20024;-79
2023/06/28 09:45:24;;;;;;;6.00;4.47;;;538.50;2406.40;;;;;;5096287;28;20423;-81
2023/06/28 09:47:57;;;;;;;6.88;4.15;;;538.50;2406.40;;;;;;5094810;28;20487;-80
2023/06/28 09:50:36;;;;;;;5.82;4.07;;;563.20;2432.00;;;;;;5087835;28;20033;-81
2023/06/28 09:53:05;;;;;;;6.07;3.95;;;563.20;2432.00;;;;;;5074032;28;20028;-80
2023/06/28 09:55:31;;;;;;;6.55;4.28;;;538.50;2406.40;;;;;;5074144;28;20025;-81
2023/06/28 09:57:57;;;;;;;5.80;3.65;;;538.50;2406.40;;;;;;5074071;28;20028;-81
2023/06/28 10:00:25;;;;;;;6.15;3.88;;;538.20;2406.40;;;;;;5073613;28;20456;-80
2023/06/28 10:02:51;;;;;;;7.03;4.43;;;538.00;2406.40;;;;;;5075342;28;20031;-81
2023/06/28 10:05:17;;;;;;;8.23;4.47;;;537.90;2406.40;;;;;;5073887;28;20032;-82
2023/06/28 10:07:44;;;;;;;6.28;4.43;;;537.90;2406.40;;;;;;5075385;28;20094;-79
2023/06/28 10:10:11;;;;;;;7.28;4.78;;;537.80;2406.40;;;;;;5079907;28;20032;-79
2023/06/28 10:12:38;;;;;;;7.55;4.60;;;537.60;2406.40;;;;;;5084160;28;20097;-78
2023/06/28 10:15:12;;;;;;;8.25;4.80;;;512.90;2380.80;;;;;;5092992;28;20024;-79
2023/06/28 10:17:38;;;;;;;7.03;4.32;;;512.90;2380.80;;;;;;5093114;28;20023;-81
2023/06/28 10:20:06;;;;;;;8.95;4.93;;;512.70;2380.80;;;;;;5092619;28;20464;-81
2023/06/28 10:22:33;;;;;;;6.10;3.97;;;512.60;2380.80;;;;;;5092246;28;20028;-81
2023/06/28 10:25:01;;;;;;;5.90;3.72;;;512.50;2380.80;;;;;;5109787;28;20028;-79
2023/06/28 10:27:28;;;;;;;5.30;3.35;;;512.50;2380.80;;;;;;5092822;28;20077;-78
2023/06/28 10:29:56;;;;;;;5.90;3.35;;;512.70;2380.80;;;;;;5094249;28;20115;-81
2023/06/28 10:32:24;;;;;;;5.50;3.50;;;512.30;2380.80;;;;;;5076067;28;20029;-79
2023/06/28 10:34:51;;;;;;;5.15;3.15;;;512.40;2380.80;;;;;;5095849;28;20026;-79
2023/06/28 10:37:23;;;;;;;6.10;3.10;;;512.30;2380.80;;;;;;5094697;28;20028;-80
2023/06/28 10:39:53;;;;;;;5.35;3.97;;;512.20;2380.80;;;;;;5092304;28;20075;-81
2023/06/28 10:42:20;;;;;;;7.43;3.80;;;512.10;2380.80;;;;;;5077461;28;20047;-81
2023/06/28 10:44:57;;;;;;;6.13;4.47;;;487.30;2380.80;;;;;;5090476;28;20039;-79
2023/06/28 10:47:23;;;;;;;5.25;4.07;;;512.20;2380.80;;;;;;5083160;28;20414;-80
2023/06/28 10:50:10;;;;;;;6.97;4.55;;;512.10;2380.80;;;;;;5079517;28;20028;-81
2023/06/28 10:52:57;;;;;;;8.38;5.43;;;512.40;2380.80;;;;;;5089522;28;20028;-78
2023/06/28 10:55:30;;;;;;;8.02;5.28;;;512.40;2380.80;;;;;;5081618;28;20028;-79
2023/06/28 10:58:11;;;;;;;8.07;5.43;;;512.40;2380.80;;;;;;5080548;28;20028;-80
2023/06/28 11:00:39;;;;;;;7.10;5.40;;;512.40;2380.80;;;;;;5089447;28;20027;-81
2023/06/28 11:03:06;;;;;;;8.90;5.20;;;512.30;2380.80;;;;;;5082552;28;20024;-79
2023/06/28 11:05:54;;;;;;;6.05;5.13;;;512.30;2380.80;;;;;;5092020;28;20647;-80
2023/06/28 11:08:21;;;;;;;8.30;5.88;;;512.30;2380.80;;;;;;5090363;28;20024;-82
2023/06/28 11:10:51;;;;;;;6.03;4.60;;;512.30;2380.80;;;;;;5090370;28;20032;-80
2023/06/28 11:13:45;;;;;;;5.78;4.30;;;512.40;2380.80;;;;;;5086879;28;20430;-80
2023/06/28 11:16:13;;;;;;;5.13;4.10;;;512.10;2380.80;;;;;;5072886;28;20119;-81
2023/06/28 11:18:39;;;;;;;7.07;4.95;;;512.20;2380.80;;;;;;5089667;28;20028;-80
2023/06/28 11:21:12;;;;;;;6.65;3.70;;;512.20;2380.80;;;;;;5082952;28;20047;-80
2023/06/28 11:23:40;;;;;;;5.13;3.55;;;512.30;2380.80;;;;;;5092776;28;20094;-82
2023/06/28 11:26:08;;;;;;;5.65;3.20;;;512.30;2380.80;;;;;;5092382;28;20031;-82
2023/06/28 11:28:35;;;;;;;5.78;4.03;;;512.40;2380.80;;;;;;5105221;28;20024;-81
2023/06/28 11:31:14;;;;;;;8.77;4.53;;;512.50;2380.80;;;;;;5109527;28;20058;-80
2023/06/28 11:33:41;;;;;;;6.63;4.35;;;512.50;2380.80;;;;;;5106283;28;20123;-83
2023/06/28 11:36:08;;;;;;;8.85;5.45;;;512.40;2380.80;;;;;;5093474;28;20387;-82
2023/06/28 11:38:36;;;;;;;6.55;4.43;;;512.40;2380.80;;;;;;5093942;28;20115;-81
2023/06/28 11:41:02;;;;;;;7.63;5.05;;;512.40;2380.80;;;;;;5094228;28;20038;-81
2023/06/28 11:43:28;;;;;;;5.40;4.40;;;512.00;2380.80;;;;;;5092476;28;20024;-80
2023/06/28 11:45:54;;;;;;;5.10;4.30;;;512.20;2380.80;;;;;;5092914;28;20092;-80
2023/06/28 11:48:23;;;;;;;6.55;5.43;;;512.00;2380.80;;;;;;5092885;28;20056;-83
2023/06/28 11:51:00;;;;;;;6.75;4.32;;;512.00;2380.80;;;;;;5104808;28;20173;-82
2023/06/28 11:53:29;;;;;;;6.93;4.60;;;512.00;2380.80;;;;;;5097891;28;20028;-80
2023/06/28 11:55:56;;;;;;;6.55;5.50;;;512.00;2380.80;;;;;;5091177;28;20028;-82
2023/06/28 11:58:30;;;;;;;7.93;4.72;;;512.00;2380.80;;;;;;5092173;28;20028;-81
2023/06/28 12:00:56;;;;;;;7.13;4.55;;;512.10;2380.80;;;;;;5092571;28;20449;-82
2023/06/28 12:03:38;;;;;;;8.23;5.15;;;512.30;2380.80;;;;;;5092032;28;20028;-79
2023/06/28 12:06:10;;;;;;;5.35;4.30;;;487.30;2380.80;;;;;;5095091;28;20059;-81
2023/06/28 12:08:37;;;;;;;4.93;2.83;;;512.00;2380.80;;;;;;5113784;28;20032;-82
2023/06/28 12:11:15;;;;;;;4.68;2.90;;;512.00;2380.80;;;;;;5113310;28;20077;-80
2023/06/28 12:13:42;;;;;;;5.63;2.92;;;487.30;2380.80;;;;;;5113751;28;20081;-81
2023/06/28 12:16:12;;;;;;;5.38;2.85;;;487.30;2380.80;;;;;;5097584;28;20024;-82